STAZIONE METEO DI BARCELLONA P.G. CENTRO
Dati campionati ogni minuto da Consolle Davis Vantage Pro 2
ed inviati alla rete mediante server Anemos WDS5 wview



Barcellona P.G. Centro more information Barcellona P.G. Centro


Golfo di Patti more information Golfo di Patti


Thunder radar more information blitzortung!


avvertimento per Pioggia  rain snow radar


altri nostri siti meteo:

Rischio IncendiRischio Incendi

Rete NOAA MADIS

Italia Meteo Network

PomeziameteoSito web di stazione meteo amica



Ci sono molteplici Allerte-Meteo   Clicca qui per maggiori informazioni

Report METAR

   
LICF - Messina, Italy
Distanza dalla stazione: NE 30 km
Dati ricevuti: 03-04-2020 08:55
Molto nuvoloso  
Molto nuvoloso  
   Vento: S 5.6 km/h
Vento: S 5.6 km/h
Temperatura: 11°C
P.to Rugiada: 7°C
Umidità: 77%
Barometro: 1010 hPa
Nuvole: Molto nuvoloso
Visibilità: oltre 10 km
dettagli cloud: Molto nuvoloso 1219.2 m
LICF 030655Z 21003KT 9999 BKN040 11/07 Q1010 RMK BKN BKN080 QUK 1 QUL 0 VIS MAR 20 KM MON LIB NC VIS MIN 9999
LICR - Reggio Calabria, Italy
Distanza dalla stazione: SE 39 km
Dati ricevuti: 03-04-2020 09:50
Parzialmente nuvoloso  
Parzialmente nuvoloso  
   Vento: S 11.1 km/h
Vento: S 11.1 km/h
Temperatura: 13°C
P.to Rugiada: 7°C
Umidità: 67%
Barometro: 1010 hPa
Nuvole: Parzialmente nuvoloso
Visibilità: oltre 10 km
dettagli cloud: Parzialmente nuvoloso 1219.2 m
LICR 030750Z 20006KT 150V230 9999 SCT040 13/07 Q1010
LICC - Catania/Fontanar, Italy
Distanza dalla stazione: S 77 km
Dati ricevuti: 03-04-2020 09:50
Molto nuvoloso  
Molto nuvoloso  
   Vento: Oriente 27.8 km/h
Vento: Oriente 27.8 km/h
Temperatura: 13°C
P.to Rugiada: 7°C
Umidità: 67%
Barometro: 1011 hPa
Nuvole: Molto nuvoloso
Visibilità: oltre 10 km
dettagli cloud: Molto nuvoloso 914.4 m
LICC 030750Z 08015KT 9999 BKN030 13/07 Q1011
LICZ - Sigonella (nas), Italy
Distanza dalla stazione: S 89 km
Dati ricevuti: 03-04-2020 09:55
Pioggia leggera, Molto nuvoloso  
Pioggia leggera, Molto nuvoloso  
   Vento: Oriente 22.2 km/h
Vento: Oriente 22.2 km/h
Temperatura: 11°C
P.to Rugiada: 9°C
Umidità: 88%
Barometro: 1011 hPa
Nuvole: Molto nuvoloso
Visibilità: oltre 10 km
dettagli cloud: Parzialmente nuvoloso 762 m,
Molto nuvoloso 2438.4 m
LICZ 030755Z 08012KT 9999 -RA SCT025 BKN080 11/09 Q1011 RMK OVC VIS MIN 9999 WIND THR28 08011KT WIND THR10 08010KT A2988 BLU
LICA - Lamezia Terme, Italy
Distanza dalla stazione: NE 122 km
Dati ricevuti: 03-04-2020 09:50
Molto nuvoloso  
Molto nuvoloso  
   Vento: NE 29.6 km/h
Vento: NE 29.6 km/h
Temperatura: 12°C
P.to Rugiada: 6°C
Umidità: 67%
Barometro: 1011 hPa
Nuvole: Molto nuvoloso
Visibilità: oltre 10 km
dettagli cloud: Poche nuvole 762 m,
Molto nuvoloso 2438.4 m
LICA 030750Z 07016KT 9999 FEW025 BKN080 12/06 Q1011
LICB - Comiso, Italy
Distanza dalla stazione: S 138 km
Dati ricevuti: 03-04-2020 09:50
Pioviggine, Poche nuvole  
Pioviggine, Poche nuvole  
   Vento: NE 9.3 km/h
Vento: NE 9.3 km/h
Temperatura: 11°C
P.to Rugiada: 8°C
Umidità: 82%
Barometro: 1009 hPa
Nuvole: Poche nuvole
Visibilità: oltre 10 km
dettagli cloud: Poche nuvole 762 m
LICB 030750Z 02005KT 350V050 9999 DZ FEW025 11/08 Q1009

Script sviluppato da  Saratoga-weather.org Adattato per il modello da  Weerstation Leuven

Potete trovare le nostre info meteo anche a:

European Weather Network

Weather Underground

AWEKAS

Citizen Weather Observer Program (CWOP)

HAMweather, WeatherForYou, PWS Weather

Attrezzature usate:

Stazione meteo
Davis VP2

Programma gestore dati meteo
WVIEW

Server per i dati meteo
WDS5 Ecoblack

Davis VP2

WVIEW

WDS5 Ecoblack